createdAt,value
2019-02-15T00:01:53.023Z,100502.89
2019-02-15T00:04:58.800Z,100499.86
2019-02-15T00:08:06.098Z,100492.94
2019-02-15T00:11:11.885Z,100491.98
2019-02-15T00:14:17.695Z,100488.37
2019-02-15T00:17:41.160Z,100495.11
2019-02-15T00:20:53.244Z,100497.66
2019-02-15T00:23:59.004Z,100499.89
2019-02-15T00:27:04.864Z,100508.03
2019-02-15T00:30:12.260Z,100502.84
2019-02-15T00:33:18.017Z,100504.34
2019-02-15T00:36:23.798Z,100500.22
2019-02-15T00:39:29.651Z,100498.23
2019-02-15T00:42:35.421Z,100495.88
2019-02-15T00:45:52.925Z,100490.70
2019-02-15T00:48:59.412Z,100492.33
2019-02-15T00:52:16.856Z,100494.87
2019-02-15T00:55:35.213Z,100494.95
2019-02-15T00:59:09.003Z,100494.07
2019-02-15T01:02:27.153Z,100489.10
2019-02-15T01:05:49.396Z,100490.02
2019-02-15T01:09:14.033Z,100487.80
2019-02-15T01:12:41.799Z,100487.31
2019-02-15T01:15:47.546Z,100482.72
2019-02-15T01:18:53.322Z,100484.14
2019-02-15T01:21:59.081Z,100480.08
2019-02-15T01:25:05.221Z,100487.16
2019-02-15T01:28:21.309Z,100487.87
2019-02-15T01:31:51.959Z,100483.97
2019-02-15T01:35:11.831Z,100487.14
2019-02-15T01:38:33.612Z,100483.79
2019-02-15T01:42:13.419Z,100481.11
2019-02-15T01:45:32.946Z,100486.05
2019-02-15T01:48:38.717Z,100484.16
2019-02-15T01:51:44.544Z,100476.56
2019-02-15T01:54:50.332Z,100473.38
2019-02-15T01:57:56.079Z,100475.81
2019-02-15T02:01:01.959Z,100474.80
2019-02-15T02:04:07.734Z,100472.75
2019-02-15T02:07:13.497Z,100474.94
2019-02-15T02:10:19.285Z,100474.64
2019-02-15T02:13:25.372Z,100474.05
2019-02-15T02:16:31.126Z,100478.61
2019-02-15T02:19:36.898Z,100476.72
2019-02-15T02:22:42.677Z,100468.55
2019-02-15T02:25:48.419Z,100466.47
2019-02-15T02:28:54.256Z,100470.53
2019-02-15T02:32:01.138Z,100473.30
2019-02-15T02:35:08.500Z,100472.66
2019-02-15T02:38:14.247Z,100474.78
2019-02-15T02:41:20.149Z,100475.09
2019-02-15T02:44:25.999Z,100478.06
2019-02-15T02:47:31.780Z,100467.23
2019-02-15T02:50:37.532Z,100475.80
2019-02-15T02:53:43.310Z,100481.74
2019-02-15T02:56:49.222Z,100482.25
2019-02-15T02:59:55.009Z,100476.52
2019-02-15T03:03:00.837Z,100475.09
2019-02-15T03:06:06.633Z,100486.18
2019-02-15T03:09:12.397Z,100497.03
2019-02-15T03:12:18.165Z,100498.88
2019-02-15T03:15:23.933Z,100500.27
2019-02-15T03:18:29.689Z,100500.82
2019-02-15T03:21:35.440Z,100502.64
2019-02-15T03:24:41.210Z,100496.05
2019-02-15T03:27:46.971Z,100497.81
2019-02-15T03:30:52.891Z,100495.49
2019-02-15T03:33:58.757Z,100499.95
2019-02-15T03:37:23.451Z,100498.39
2019-02-15T03:40:50.645Z,100493.69
2019-02-15T03:43:56.770Z,100490.59
2019-02-15T03:47:02.568Z,100491.47
2019-02-15T03:50:08.980Z,100499.27
2019-02-15T03:53:14.748Z,100504.57
2019-02-15T03:56:20.497Z,100507.63
2019-02-15T03:59:26.576Z,100501.73
2019-02-15T04:02:32.529Z,100497.61
2019-02-15T04:05:38.360Z,100511.96
2019-02-15T04:08:44.181Z,100511.37
2019-02-15T04:11:49.964Z,100512.59
2019-02-15T04:14:55.745Z,100515.17
2019-02-15T04:18:01.521Z,100516.53
2019-02-15T04:21:07.308Z,100522.40
2019-02-15T04:24:14.195Z,100514.19
2019-02-15T04:27:19.999Z,100509.33
2019-02-15T04:30:25.783Z,100516.41
2019-02-15T04:33:31.544Z,100517.30
2019-02-15T04:36:37.356Z,100517.28
2019-02-15T04:39:43.111Z,100516.81
2019-02-15T04:42:48.879Z,100518.95
2019-02-15T04:45:54.638Z,100529.20
2019-02-15T04:49:00.395Z,100524.14
2019-02-15T04:52:06.159Z,100523.56
2019-02-15T04:55:12.006Z,100517.53
2019-02-15T04:58:17.815Z,100523.14
2019-02-15T05:01:23.578Z,100531.84
2019-02-15T05:04:29.383Z,100535.37
2019-02-15T05:07:35.209Z,100531.67
2019-02-15T05:10:41.001Z,100543.50
2019-02-15T05:13:46.812Z,100532.99
2019-02-15T05:16:52.572Z,100538.03
2019-02-15T05:19:58.378Z,100531.34
2019-02-15T05:23:04.141Z,100533.48
2019-02-15T05:26:09.949Z,100538.61
2019-02-15T05:29:15.739Z,100543.30
2019-02-15T05:32:21.514Z,100544.56
2019-02-15T05:35:27.269Z,100554.38
2019-02-15T05:38:33.111Z,100546.91
2019-02-15T05:41:38.871Z,100550.74
2019-02-15T05:44:44.640Z,100554.88
2019-02-15T05:47:50.394Z,100560.77
2019-02-15T05:50:56.175Z,100560.47
2019-02-15T05:54:01.952Z,100571.00
2019-02-15T05:57:09.610Z,100570.66
2019-02-15T06:00:15.210Z,100575.03
2019-02-15T06:03:20.964Z,100575.07
2019-02-15T06:06:26.736Z,100583.33
2019-02-15T06:09:32.551Z,100589.64
2019-02-15T06:12:38.300Z,100590.66
2019-02-15T06:15:44.083Z,100595.47
2019-02-15T06:18:49.848Z,100600.37
2019-02-15T06:21:55.708Z,100607.86
2019-02-15T06:25:01.485Z,100614.16
2019-02-15T06:28:07.273Z,100625.31
2019-02-15T06:31:13.035Z,100623.17
2019-02-15T06:34:18.802Z,100620.88
2019-02-15T06:37:24.635Z,100618.30
2019-02-15T06:40:30.398Z,100629.52
2019-02-15T06:43:36.203Z,100625.14
2019-02-15T06:46:42.268Z,100630.52
2019-02-15T06:49:49.046Z,100636.02
2019-02-15T06:52:54.927Z,100630.88
2019-02-15T06:56:00.660Z,100634.88
2019-02-15T06:59:27.899Z,100636.45
2019-02-15T07:02:58.336Z,100641.57
2019-02-15T07:06:04.132Z,100644.53
2019-02-15T07:09:09.893Z,100639.47
2019-02-15T07:12:15.678Z,100648.98
2019-02-15T07:15:21.552Z,100658.95
2019-02-15T07:18:27.332Z,100665.70
2019-02-15T07:21:33.113Z,100658.00
2019-02-15T07:24:39.878Z,100663.80
2019-02-15T07:27:45.637Z,100660.97
2019-02-15T07:30:52.388Z,100676.21
2019-02-15T07:33:58.157Z,100675.17
2019-02-15T07:37:03.919Z,100679.87
2019-02-15T07:40:10.325Z,100683.73
2019-02-15T07:43:16.253Z,100694.18
2019-02-15T07:46:22.017Z,100696.77
2019-02-15T07:49:27.772Z,100695.14
2019-02-15T07:52:34.513Z,100697.56
2019-02-15T07:55:40.304Z,100701.89
2019-02-15T07:58:46.187Z,100702.97
2019-02-15T08:01:51.894Z,100697.47
2019-02-15T08:04:57.628Z,100700.77
2019-02-15T08:08:03.399Z,100702.48
2019-02-15T08:11:09.140Z,100707.31
2019-02-15T08:14:17.105Z,100695.28
2019-02-15T08:17:22.411Z,100698.80
2019-02-15T08:20:28.215Z,100703.62
2019-02-15T08:23:34.043Z,100705.01
2019-02-15T08:26:39.824Z,100705.59
2019-02-15T08:29:45.682Z,100704.75
2019-02-15T08:32:51.514Z,100707.89
2019-02-15T08:35:57.284Z,100707.03
2019-02-15T08:39:03.232Z,100715.21
2019-02-15T08:42:10.548Z,100713.55
2019-02-15T08:45:16.429Z,100714.94
2019-02-15T08:48:22.210Z,100722.60
2019-02-15T08:51:28.000Z,100721.71
2019-02-15T08:54:34.898Z,100725.69
2019-02-15T08:57:40.629Z,100723.53
2019-02-15T09:00:46.405Z,100728.41
2019-02-15T09:03:52.146Z,100732.46
2019-02-15T09:06:57.908Z,100731.13
2019-02-15T09:10:04.130Z,100733.67
2019-02-15T09:13:09.986Z,100730.86
2019-02-15T09:16:15.791Z,100736.44
2019-02-15T09:19:21.559Z,100742.41
2019-02-15T09:22:27.311Z,100733.44
2019-02-15T09:25:33.092Z,100723.75
2019-02-15T09:28:46.322Z,100734.39
2019-02-15T09:31:52.137Z,100729.67
2019-02-15T09:34:57.903Z,100733.70
2019-02-15T09:38:03.697Z,100736.33
2019-02-15T09:41:09.474Z,100732.23
2019-02-15T09:44:15.235Z,100730.22
2019-02-15T09:47:21.029Z,100728.83
2019-02-15T09:50:26.801Z,100735.17
2019-02-15T09:53:32.573Z,100734.59
2019-02-15T09:56:38.431Z,100735.34
2019-02-15T09:59:44.182Z,100738.91
2019-02-15T10:02:49.941Z,100735.51
2019-02-15T10:05:55.713Z,100738.92
2019-02-15T10:09:01.564Z,100739.13
2019-02-15T10:12:08.894Z,100737.85
2019-02-15T10:15:14.757Z,100739.01
2019-02-15T10:18:21.667Z,100738.91
2019-02-15T10:21:27.431Z,100742.00
2019-02-15T10:24:33.210Z,100749.81
2019-02-15T10:27:38.980Z,100742.59
2019-02-15T10:30:44.833Z,100740.86
2019-02-15T10:33:51.592Z,100739.33
2019-02-15T10:36:58.436Z,100736.43
2019-02-15T10:40:05.563Z,100736.77
2019-02-15T10:43:11.317Z,100736.55
2019-02-15T10:46:17.208Z,100730.58
2019-02-15T10:49:24.122Z,100737.51
2019-02-15T10:52:29.864Z,100736.27
2019-02-15T10:55:35.650Z,100737.86
2019-02-15T10:58:41.527Z,100738.86
2019-02-15T11:01:47.321Z,100730.80
2019-02-15T11:04:54.222Z,100732.45
2019-02-15T11:08:00.015Z,100734.38
2019-02-15T11:11:05.963Z,100727.41
2019-02-15T11:14:11.719Z,100725.85
2019-02-15T11:17:17.626Z,100717.94
2019-02-15T11:20:23.690Z,100725.39
2019-02-15T11:23:29.478Z,100721.55
2019-02-15T11:26:35.258Z,100726.53
2019-02-15T11:29:41.029Z,100727.69
2019-02-15T11:32:46.972Z,100729.02
2019-02-15T11:35:52.833Z,100726.04
2019-02-15T11:38:58.589Z,100732.33
2019-02-15T11:42:04.368Z,100736.48
2019-02-15T11:45:11.339Z,100732.52
2019-02-15T11:48:17.117Z,100730.72
2019-02-15T11:51:22.953Z,100734.91
2019-02-15T11:54:28.719Z,100734.34
2019-02-15T11:57:34.514Z,100739.58
2019-02-15T12:00:40.240Z,100731.83
2019-02-15T12:03:46.020Z,100731.09
2019-02-15T12:06:52.762Z,100739.50
2019-02-15T12:09:58.519Z,100734.70
2019-02-15T12:13:04.508Z,100736.36
2019-02-15T12:16:10.286Z,100734.91
2019-02-15T12:19:16.103Z,100734.95
2019-02-15T12:22:22.015Z,100725.95
2019-02-15T12:25:27.749Z,100727.47
2019-02-15T12:28:33.518Z,100737.72
2019-02-15T12:31:39.261Z,100732.58
2019-02-15T12:34:45.130Z,100730.54
2019-02-15T12:37:50.966Z,100723.56
2019-02-15T12:40:56.701Z,100726.88
2019-02-15T12:44:02.614Z,100726.16
2019-02-15T12:47:14.877Z,100724.02
2019-02-15T12:50:16.581Z,100728.14
2019-02-15T12:53:22.412Z,100727.03
2019-02-15T12:56:28.284Z,100726.13
2019-02-15T12:59:34.047Z,100730.46
2019-02-15T13:02:39.843Z,100732.64
2019-02-15T13:05:45.664Z,100730.53
2019-02-15T13:08:51.434Z,100730.59
2019-02-15T13:11:57.238Z,100735.47
2019-02-15T13:15:03.110Z,100730.22
2019-02-15T13:18:09.118Z,100741.41
2019-02-15T13:21:14.867Z,100741.30
2019-02-15T13:24:20.721Z,100736.52
2019-02-15T13:27:26.493Z,100746.92
2019-02-15T13:30:32.256Z,100744.16
2019-02-15T13:33:38.054Z,100742.72
2019-02-15T13:36:43.873Z,100743.46
2019-02-15T13:39:49.660Z,100741.20
2019-02-15T13:42:55.437Z,100739.36
2019-02-15T13:46:01.202Z,100736.39
2019-02-15T13:49:06.960Z,100735.97
2019-02-15T13:52:12.712Z,100737.44
2019-02-15T13:55:18.500Z,100730.98
2019-02-15T13:58:24.269Z,100733.52
2019-02-15T14:01:30.087Z,100733.28
2019-02-15T14:04:35.862Z,100727.70
2019-02-15T14:07:41.814Z,100727.20
2019-02-15T14:10:47.593Z,100736.23
2019-02-15T14:13:53.367Z,100731.22
2019-02-15T14:16:59.119Z,100735.56
2019-02-15T14:20:05.757Z,100739.16
2019-02-15T14:23:13.901Z,100742.25
2019-02-15T14:26:19.079Z,100744.36
2019-02-15T14:29:24.848Z,100745.40
2019-02-15T14:32:30.600Z,100744.07
2019-02-15T14:35:37.469Z,100740.98
2019-02-15T14:38:43.316Z,100742.59
2019-02-15T14:41:49.126Z,100741.09
2019-02-15T14:44:54.895Z,100743.55
2019-02-15T14:48:00.718Z,100743.44
2019-02-15T14:51:06.616Z,100745.20
2019-02-15T14:54:12.399Z,100756.92
2019-02-15T14:57:18.259Z,100753.89
2019-02-15T15:00:24.135Z,100746.83
2019-02-15T15:03:30.154Z,100749.92
2019-02-15T15:06:35.965Z,100749.33
2019-02-15T15:09:44.694Z,100750.64
2019-02-15T15:12:50.510Z,100760.87
2019-02-15T15:15:56.320Z,100765.30
2019-02-15T15:19:02.191Z,100759.08
2019-02-15T15:22:07.985Z,100760.84
2019-02-15T15:25:14.001Z,100774.66
2019-02-15T15:28:19.927Z,100774.18
2019-02-15T15:31:25.754Z,100776.88
2019-02-15T15:34:32.110Z,100776.42
2019-02-15T15:37:38.057Z,100777.59
2019-02-15T15:40:43.870Z,100787.33
2019-02-15T15:43:49.642Z,100783.80
2019-02-15T15:46:55.461Z,100785.13
2019-02-15T15:50:01.241Z,100786.85
2019-02-15T15:53:07.962Z,100787.02
2019-02-15T15:56:13.897Z,100786.61
2019-02-15T15:59:19.737Z,100795.11
2019-02-15T16:02:25.513Z,100795.06
2019-02-15T16:05:31.320Z,100797.25
2019-02-15T16:08:37.093Z,100804.70
2019-02-15T16:11:43.025Z,100802.91
2019-02-15T16:14:48.856Z,100810.05
2019-02-15T16:17:54.648Z,100818.81
2019-02-15T16:21:00.432Z,100817.24
2019-02-15T16:24:12.281Z,100823.36
2019-02-15T16:27:13.744Z,100828.94
2019-02-15T16:30:19.769Z,100833.29
2019-02-15T16:33:25.540Z,100834.13
2019-02-15T16:36:31.417Z,100835.50
2019-02-15T16:39:37.172Z,100848.86
2019-02-15T16:42:43.192Z,100845.20
2019-02-15T16:45:49.095Z,100855.73
2019-02-15T16:48:54.875Z,100853.84
2019-02-15T16:52:00.679Z,100857.06
2019-02-15T16:55:12.876Z,100863.67
2019-02-15T16:58:14.163Z,100867.66
2019-02-15T17:01:19.981Z,100865.29
2019-02-15T17:04:25.774Z,100870.86
2019-02-15T17:07:31.659Z,100874.91
2019-02-15T17:10:37.440Z,100881.69
2019-02-15T17:13:43.223Z,100882.15
2019-02-15T17:16:48.985Z,100900.37
2019-02-15T17:19:54.746Z,100898.92
2019-02-15T17:23:00.510Z,100900.16
2019-02-15T17:26:06.308Z,100910.64
2019-02-15T17:29:12.079Z,100902.30
2019-02-15T17:32:17.901Z,100907.93
2019-02-15T17:35:23.714Z,100908.44
2019-02-15T17:38:29.614Z,100908.33
2019-02-15T17:41:35.359Z,100907.78
2019-02-15T17:44:42.269Z,100911.57
2019-02-15T17:47:48.062Z,100913.75
2019-02-15T17:50:53.898Z,100912.00
2019-02-15T17:53:59.673Z,100919.62
2019-02-15T17:57:06.187Z,100926.69
2019-02-15T18:00:13.009Z,100923.14
2019-02-15T18:03:18.939Z,100926.16
2019-02-15T18:06:24.718Z,100924.87
2019-02-15T18:09:30.534Z,100921.89
2019-02-15T18:12:36.304Z,100924.41
2019-02-15T18:15:42.099Z,100920.58
2019-02-15T18:18:47.867Z,100921.78
2019-02-15T18:21:53.735Z,100933.47
2019-02-15T18:24:59.529Z,100930.80
2019-02-15T18:28:05.594Z,100930.09
2019-02-15T18:31:11.368Z,100929.46
2019-02-15T18:34:17.194Z,100934.64
2019-02-15T18:37:23.077Z,100927.81
2019-02-15T18:40:28.898Z,100934.11
2019-02-15T18:43:34.636Z,100941.27
2019-02-15T18:46:40.423Z,100934.97
2019-02-15T18:49:46.309Z,100941.92
2019-02-15T18:52:52.413Z,100939.70
2019-02-15T18:55:58.317Z,100940.39
2019-02-15T18:59:04.112Z,100941.30
2019-02-15T19:02:09.987Z,100940.84
2019-02-15T19:05:15.961Z,100941.59
2019-02-15T19:08:21.816Z,100952.05
2019-02-15T19:11:27.728Z,100956.45
2019-02-15T19:14:33.590Z,100961.07
2019-02-15T19:17:39.552Z,100958.66
2019-02-15T19:20:45.438Z,100963.32
2019-02-15T19:23:52.371Z,100965.62
2019-02-15T19:26:58.268Z,100962.81
2019-02-15T19:30:05.667Z,100963.00
2019-02-15T19:33:11.665Z,100967.09
2019-02-15T19:36:18.637Z,100969.17
2019-02-15T19:39:24.403Z,100963.86
2019-02-15T19:42:30.216Z,100965.47
2019-02-15T19:45:36.002Z,100965.64
2019-02-15T19:48:41.781Z,100961.59
2019-02-15T19:51:48.181Z,100966.33
2019-02-15T19:54:54.020Z,100963.52
2019-02-15T19:57:59.873Z,100968.27
2019-02-15T20:01:05.773Z,100966.08
2019-02-15T20:04:11.601Z,100966.10
2019-02-15T20:07:17.497Z,100965.47
2019-02-15T20:10:23.824Z,100963.86
2019-02-15T20:13:29.698Z,100969.59
2019-02-15T20:16:35.523Z,100968.22
2019-02-15T20:19:48.224Z,100972.25
2019-02-15T20:22:49.051Z,100968.58
2019-02-15T20:25:54.894Z,100969.70
2019-02-15T20:29:00.671Z,100974.33
2019-02-15T20:32:06.460Z,100970.05
2019-02-15T20:35:13.568Z,100975.36
2019-02-15T20:38:19.703Z,100967.80
2019-02-15T20:41:25.587Z,100973.36
2019-02-15T20:44:31.460Z,100966.81
2019-02-15T20:47:37.227Z,100970.60
2019-02-15T20:50:43.019Z,100967.20
2019-02-15T20:53:48.917Z,100957.20
2019-02-15T20:56:54.667Z,100959.59
2019-02-15T21:00:00.471Z,100958.30
2019-02-15T21:03:06.588Z,100962.55
2019-02-15T21:06:12.350Z,100962.59
2019-02-15T21:09:18.221Z,100967.45
2019-02-15T21:12:24.019Z,100961.57
2019-02-15T21:15:29.804Z,100964.48
2019-02-15T21:18:35.600Z,100964.57
2019-02-15T21:21:41.465Z,100962.31
2019-02-15T21:24:47.232Z,100962.26
2019-02-15T21:27:53.021Z,100967.03
2019-02-15T21:30:58.884Z,100959.87
2019-02-15T21:34:04.743Z,100964.63
2019-02-15T21:37:10.542Z,100968.25
2019-02-15T21:40:16.841Z,100972.34
2019-02-15T21:43:22.606Z,100974.84
2019-02-15T21:46:28.406Z,100972.39
2019-02-15T21:49:34.211Z,100978.38
2019-02-15T21:52:44.385Z,100975.55
2019-02-15T21:55:47.623Z,100978.80
2019-02-15T21:58:53.433Z,100974.06
2019-02-15T22:01:59.216Z,100984.50
2019-02-15T22:05:05.244Z,100981.66
2019-02-15T22:08:11.015Z,100980.45
2019-02-15T22:11:16.864Z,100976.23
2019-02-15T22:14:22.655Z,100977.56
2019-02-15T22:17:28.460Z,100977.30
2019-02-15T22:20:34.217Z,100989.59
2019-02-15T22:23:39.963Z,100986.55
2019-02-15T22:26:45.746Z,100992.89
2019-02-15T22:29:51.462Z,100991.07
2019-02-15T22:32:57.234Z,100986.33
2019-02-15T22:36:02.996Z,100984.71
2019-02-15T22:39:08.924Z,100987.66
2019-02-15T22:42:15.037Z,100985.11
2019-02-15T22:45:20.919Z,100989.78
2019-02-15T22:48:26.690Z,100994.19
2019-02-15T22:51:32.475Z,100988.67
2019-02-15T22:54:38.268Z,100981.98
2019-02-15T22:57:44.046Z,100986.42
2019-02-15T23:00:57.356Z,100988.75
2019-02-15T23:04:03.380Z,100990.32
2019-02-15T23:07:09.166Z,100988.36
2019-02-15T23:10:15.057Z,100994.92
2019-02-15T23:13:20.963Z,100996.80
2019-02-15T23:16:26.738Z,100996.67
2019-02-15T23:19:32.517Z,100988.39
2019-02-15T23:22:38.327Z,100989.17
2019-02-15T23:25:44.091Z,100985.10
2019-02-15T23:28:49.874Z,100982.06
2019-02-15T23:31:55.641Z,100981.14
2019-02-15T23:35:01.399Z,100981.64
2019-02-15T23:38:07.178Z,100980.08
2019-02-15T23:41:13.975Z,100975.52
2019-02-15T23:44:19.816Z,100975.94
2019-02-15T23:47:25.593Z,100974.83
2019-02-15T23:50:31.390Z,100961.38
2019-02-15T23:53:37.171Z,100966.58
2019-02-15T23:56:42.952Z,100961.72
2019-02-15T23:59:48.821Z,100960.08
